Time;durP1;ratioP1;P1;durP2;ratioP2;P2;SDS_P1;SDS_P2;PMS_P1;PMS_P2;Temp;Humidity;BMP_temperature;BMP_pressure;BME280_temperature;BME280_humidity;BME280_pressure;Samples;Min_cycle;Max_cycle;Signal;HPM_P1;HPM_P2
2022/10/20 00:00:13;;;;;;;7.65;3.40;;;;;;;8.08;75.60;102078.09;5128135;27;20342;-67
2022/10/20 00:02:40;;;;;;;5.20;3.45;;;;;;;8.08;75.48;102074.63;5126592;27;20058;-67
2022/10/20 00:05:07;;;;;;;6.90;3.90;;;;;;;7.92;74.98;102075.78;5126171;27;20482;-66
2022/10/20 00:07:33;;;;;;;7.05;3.67;;;;;;;7.82;75.88;102075.13;5126456;27;20043;-66
2022/10/20 00:10:00;;;;;;;6.65;3.80;;;;;;;7.99;75.35;102062.59;5125366;27;20047;-66
2022/10/20 00:12:28;;;;;;;5.47;3.75;;;;;;;8.08;75.49;102064.16;5127541;27;20042;-66
2022/10/20 00:14:54;;;;;;;8.20;4.20;;;;;;;8.00;77.22;102053.00;5132718;27;20393;-66
2022/10/20 00:17:20;;;;;;;6.82;3.15;;;;;;;8.20;77.33;102056.09;5125534;27;20231;-66
2022/10/20 00:19:47;;;;;;;8.15;3.95;;;;;;;8.48;76.37;102045.91;5127603;27;20092;-66
2022/10/20 00:22:14;;;;;;;6.50;3.72;;;;;;;8.54;76.57;102049.25;5128539;27;20418;-66
2022/10/20 00:24:41;;;;;;;6.47;3.72;;;;;;;8.44;77.23;102049.47;5126115;27;20047;-66
2022/10/20 00:27:08;;;;;;;9.13;3.92;;;;;;;8.34;77.78;102043.59;5125797;27;20517;-66
2022/10/20 00:29:36;;;;;;;6.53;3.40;;;;;;;8.15;78.83;102050.94;5134356;27;20502;-66
2022/10/20 00:32:02;;;;;;;8.43;3.75;;;;;;;8.09;78.84;102048.44;5147595;27;20046;-66
2022/10/20 00:34:28;;;;;;;7.82;3.60;;;;;;;8.20;78.69;102048.25;5146644;27;20043;-66
2022/10/20 00:36:55;;;;;;;6.90;3.80;;;;;;;8.43;77.94;102047.75;5140360;27;20501;-67
2022/10/20 00:39:21;;;;;;;5.25;3.72;;;;;;;8.41;77.53;102041.72;5125681;27;20054;-66
2022/10/20 00:41:48;;;;;;;6.03;3.40;;;;;;;7.96;77.87;102046.13;5124820;27;20061;-66
2022/10/20 00:44:51;;;;;;;5.70;3.55;;;;;;;7.90;77.63;102035.81;5106995;28;20044;-66
2022/10/20 00:47:23;;;;;;;5.70;3.22;;;;;;;8.13;77.56;102023.97;5108446;27;20096;-66
2022/10/20 00:49:50;;;;;;;8.40;3.50;;;;;;;7.97;78.20;102029.56;5125611;27;20047;-66
2022/10/20 00:52:20;;;;;;;7.45;4.03;;;;;;;8.09;77.09;102026.72;5125938;27;20035;-66
2022/10/20 00:54:48;;;;;;;5.25;3.20;;;;;;;8.33;76.59;102018.34;5127024;27;20230;-66
2022/10/20 00:57:15;;;;;;;8.95;3.20;;;;;;;8.19;76.70;102016.03;5126420;27;20050;-66
2022/10/20 00:59:42;;;;;;;5.38;3.30;;;;;;;8.24;76.78;102010.72;5125733;27;20433;-66
2022/10/20 01:02:10;;;;;;;4.63;3.22;;;;;;;8.27;76.23;102010.63;5126980;27;20070;-66
2022/10/20 01:04:37;;;;;;;9.55;3.47;;;;;;;8.19;77.19;102007.31;5125496;27;20136;-66
2022/10/20 01:07:04;;;;;;;7.53;4.03;;;;;;;8.30;77.18;102005.38;5125412;27;20047;-66
2022/10/20 01:09:32;;;;;;;6.05;3.15;;;;;;;8.34;76.51;102007.03;5124708;27;20051;-66
2022/10/20 01:12:15;;;;;;;7.43;3.50;;;;;;;8.15;76.97;101997.81;5125531;27;20046;-66
2022/10/20 01:14:53;;;;;;;7.07;3.70;;;;;;;8.05;77.97;102004.16;5126651;27;20526;-66
2022/10/20 01:17:31;;;;;;;7.13;3.85;;;;;;;8.16;78.59;101994.34;5127787;27;20054;-66
2022/10/20 01:20:16;;;;;;;5.68;3.45;;;;;;;7.89;79.74;101993.16;5126074;27;20448;-66
2022/10/20 01:23:08;;;;;;;5.55;3.42;;;;;;;7.78;80.13;101982.94;5125315;27;20039;-66
2022/10/20 01:25:47;;;;;;;4.97;3.22;;;;;;;7.63;81.89;101987.59;5122709;27;20082;-66
2022/10/20 01:28:24;;;;;;;7.32;3.30;;;;;;;7.73;81.47;101973.47;5123826;27;20578;-66
2022/10/20 01:30:58;;;;;;;6.70;3.90;;;;;;;7.84;81.30;101964.53;5119331;27;20414;-66
2022/10/20 01:33:33;;;;;;;11.45;3.63;;;;;;;7.88;80.55;101954.00;5106446;27;20054;-66
2022/10/20 01:36:05;;;;;;;9.30;3.75;;;;;;;7.87;80.92;101965.38;5105213;28;20040;-66
2022/10/20 01:38:37;;;;;;;7.50;3.93;;;;;;;7.67;81.70;101956.19;5124836;27;20638;-66
2022/10/20 01:41:10;;;;;;;7.60;3.00;;;;;;;7.55;82.37;101952.94;5124589;27;20561;-66
2022/10/20 01:43:41;;;;;;;8.48;3.55;;;;;;;7.33;83.59;101950.78;5106273;28;20040;-66
2022/10/20 01:46:11;;;;;;;8.97;3.50;;;;;;;7.23;84.87;101946.63;5106878;28;20036;-66
2022/10/20 01:48:39;;;;;;;6.70;3.38;;;;;;;7.28;84.57;101946.50;5106459;28;20055;-66
2022/10/20 01:51:06;;;;;;;5.72;3.40;;;;;;;7.37;83.68;101941.13;5108264;27;20119;-66
2022/10/20 01:53:33;;;;;;;5.43;3.13;;;;;;;7.35;84.37;101937.72;5127246;27;20046;-66
2022/10/20 01:56:01;;;;;;;17.05;3.88;;;;;;;7.44;83.45;101931.44;5130454;27;20047;-66
2022/10/20 01:59:04;;;;;;;7.38;3.60;;;;;;;7.80;81.88;101931.53;5128697;27;20058;-66
2022/10/20 02:01:44;;;;;;;8.80;3.50;;;;;;;8.01;79.73;101932.84;5128172;27;20043;-66
2022/10/20 02:04:11;;;;;;;8.00;3.47;;;;;;;8.12;78.96;101933.44;5109599;27;20043;-66
2022/10/20 02:06:45;;;;;;;6.95;3.47;;;;;;;8.09;78.77;101933.50;5130119;27;20043;-66
2022/10/20 02:09:18;;;;;;;8.80;3.40;;;;;;;7.94;79.61;101922.56;5129330;27;20050;-66
2022/10/20 02:11:51;;;;;;;5.65;3.28;;;;;;;7.92;79.85;101926.94;5129347;27;20051;-66
2022/10/20 02:14:21;;;;;;;7.43;3.45;;;;;;;7.88;80.16;101917.44;5128060;27;20071;-66
2022/10/20 02:16:51;;;;;;;5.55;3.10;;;;;;;8.02;79.22;101905.78;5129003;27;20050;-66
2022/10/20 02:19:21;;;;;;;6.28;3.72;;;;;;;7.88;79.24;101901.78;5129473;27;20047;-66
2022/10/20 02:21:49;;;;;;;5.25;3.42;;;;;;;7.93;79.05;101897.31;5129477;27;20039;-66
2022/10/20 02:24:18;;;;;;;6.50;3.88;;;;;;;8.03;79.20;101901.44;5129080;27;20442;-66
2022/10/20 02:26:45;;;;;;;10.45;3.80;;;;;;;7.80;79.92;101889.75;5128231;27;20050;-66
2022/10/20 02:29:14;;;;;;;10.05;4.22;;;;;;;7.70;80.73;101893.47;5129508;27;20047;-66
2022/10/20 02:31:43;;;;;;;12.57;4.80;;;;;;;7.75;81.49;101891.63;5128560;27;20039;-66
2022/10/20 02:34:11;;;;;;;6.88;4.20;;;;;;;7.90;80.67;101892.19;5127974;27;20043;-66
2022/10/20 02:36:40;;;;;;;9.43;4.05;;;;;;;8.12;79.69;101899.50;5129759;27;20469;-65
2022/10/20 02:39:07;;;;;;;10.63;4.82;;;;;;;7.57;81.65;101889.41;5128557;27;20475;-65
2022/10/20 02:41:34;;;;;;;7.32;4.45;;;;;;;7.21;84.13;101895.34;5127971;27;20490;-65
2022/10/20 02:44:00;;;;;;;5.35;3.42;;;;;;;7.26;84.08;101894.38;5129397;27;20051;-65
2022/10/20 02:46:27;;;;;;;8.20;3.80;;;;;;;7.59;82.60;101895.44;5127462;27;20055;-66
2022/10/20 02:48:55;;;;;;;7.43;4.03;;;;;;;7.67;82.11;101895.28;5127602;27;20054;-65
2022/10/20 02:51:21;;;;;;;9.18;4.45;;;;;;;7.61;81.38;101887.59;5128044;27;20395;-66
2022/10/20 02:53:48;;;;;;;9.63;4.43;;;;;;;7.68;81.57;101884.81;5117988;27;20046;-65
2022/10/20 02:56:15;;;;;;;7.55;4.07;;;;;;;7.81;80.96;101874.94;5127251;27;20043;-65
2022/10/20 02:58:41;;;;;;;7.68;3.72;;;;;;;7.73;81.14;101874.25;5128292;27;20050;-65
2022/10/20 03:01:08;;;;;;;9.18;3.78;;;;;;;7.75;81.22;101881.19;5120338;27;20039;-65
2022/10/20 03:03:34;;;;;;;6.88;3.65;;;;;;;7.75;80.98;101882.94;5127537;27;20546;-65
2022/10/20 03:06:09;;;;;;;8.65;3.60;;;;;;;7.82;80.01;101887.13;5129777;27;20043;-65
2022/10/20 03:08:35;;;;;;;8.32;4.15;;;;;;;8.07;79.49;101871.75;5128000;27;20050;-65
2022/10/20 03:11:02;;;;;;;9.52;3.65;;;;;;;8.01;79.21;101869.28;5126127;27;20111;-65
2022/10/20 03:13:28;;;;;;;9.63;3.72;;;;;;;7.89;80.20;101866.94;5129594;27;20066;-65
2022/10/20 03:15:55;;;;;;;6.15;3.60;;;;;;;7.74;80.84;101873.38;5113469;27;20043;-65
2022/10/20 03:18:21;;;;;;;8.48;3.70;;;;;;;8.05;80.24;101868.31;5137236;27;20050;-65
2022/10/20 03:20:50;;;;;;;8.40;3.95;;;;;;;7.90;80.28;101860.84;5137447;27;20486;-65
2022/10/20 03:23:18;;;;;;;15.25;4.00;;;;;;;7.46;82.34;101856.59;5127871;27;20050;-65
2022/10/20 03:25:44;;;;;;;8.02;3.70;;;;;;;7.34;82.78;101849.88;5126797;27;20035;-65
2022/10/20 03:28:11;;;;;;;7.38;3.75;;;;;;;7.51;82.65;101860.81;5127928;27;20039;-65
2022/10/20 03:30:37;;;;;;;8.93;4.10;;;;;;;7.82;80.15;101856.66;5128101;27;20046;-65
2022/10/20 03:33:04;;;;;;;8.77;4.15;;;;;;;7.71;79.87;101858.63;5127446;27;20047;-65
2022/10/20 03:35:31;;;;;;;9.10;4.13;;;;;;;7.88;80.06;101849.56;5142889;27;20058;-65
2022/10/20 03:37:57;;;;;;;6.97;3.88;;;;;;;7.46;81.67;101853.97;5126682;27;20043;-65
2022/10/20 03:40:25;;;;;;;8.82;3.50;;;;;;;7.43;82.50;101856.66;5106095;28;20048;-65
2022/10/20 03:42:51;;;;;;;8.93;4.28;;;;;;;7.44;82.64;101861.84;5125743;27;20043;-65
2022/10/20 03:45:18;;;;;;;7.85;4.05;;;;;;;7.60;81.75;101851.94;5127140;27;20047;-65
2022/10/20 03:47:44;;;;;;;7.25;3.80;;;;;;;7.76;80.88;101855.94;5127034;27;20513;-65
2022/10/20 03:50:11;;;;;;;8.65;4.53;;;;;;;7.61;81.19;101848.44;5127493;27;20047;-65
2022/10/20 03:52:37;;;;;;;13.70;4.20;;;;;;;7.17;82.81;101844.13;5126368;27;20058;-65
2022/10/20 03:55:04;;;;;;;7.05;4.07;;;;;;;7.39;81.32;101831.53;5127582;27;20039;-65
2022/10/20 03:57:32;;;;;;;6.78;3.80;;;;;;;6.98;83.64;101833.22;5127140;27;20046;-65
2022/10/20 03:59:59;;;;;;;7.47;3.88;;;;;;;7.10;83.30;101825.13;5125418;27;20650;-65
2022/10/20 04:02:33;;;;;;;9.40;4.90;;;;;;;7.21;83.04;101827.53;5125371;27;20513;-65
2022/10/20 04:05:00;;;;;;;10.73;5.15;;;;;;;7.34;82.73;101831.63;5126476;27;20130;-65
2022/10/20 04:07:27;;;;;;;12.95;5.22;;;;;;;7.38;82.46;101828.06;5107923;28;20047;-65
2022/10/20 04:09:54;;;;;;;11.63;4.90;;;;;;;7.42;81.60;101829.72;5113821;27;20039;-65
2022/10/20 04:12:21;;;;;;;12.57;4.68;;;;;;;7.58;80.98;101836.28;5127114;27;20491;-65
2022/10/20 04:14:49;;;;;;;10.60;4.85;;;;;;;7.46;80.20;101831.38;5127416;27;20047;-65
2022/10/20 04:17:15;;;;;;;8.90;4.25;;;;;;;7.40;79.62;101835.81;5125247;27;20039;-65
2022/10/20 04:19:42;;;;;;;12.55;4.63;;;;;;;7.46;79.10;101830.50;5125185;27;20410;-65
2022/10/20 04:22:08;;;;;;;8.45;3.97;;;;;;;7.51;77.91;101826.88;5127116;27;20054;-65
2022/10/20 04:24:35;;;;;;;7.32;4.10;;;;;;;7.45;79.75;101823.56;5125658;27;20395;-65
2022/10/20 04:27:01;;;;;;;10.73;4.53;;;;;;;7.52;79.39;101826.00;5126666;27;20132;-65
2022/10/20 04:29:28;;;;;;;7.15;4.25;;;;;;;7.49;78.53;101815.63;5127885;27;20039;-65
2022/10/20 04:31:56;;;;;;;7.93;4.35;;;;;;;7.52;77.34;101815.56;5125800;27;20046;-65
2022/10/20 04:34:23;;;;;;;9.35;3.95;;;;;;;7.58;77.55;101802.34;5127091;27;20047;-65
2022/10/20 04:36:49;;;;;;;8.07;4.50;;;;;;;7.72;77.73;101802.91;5127048;27;20047;-65
2022/10/20 04:39:16;;;;;;;11.82;4.70;;;;;;;7.60;79.19;101799.72;5126469;27;20047;-65
2022/10/20 04:41:42;;;;;;;8.25;4.57;;;;;;;7.74;79.58;101801.13;5126099;27;20046;-65
2022/10/20 04:44:09;;;;;;;11.75;5.07;;;;;;;7.44;81.61;101798.34;5128792;27;20051;-65
2022/10/20 04:46:35;;;;;;;10.88;4.55;;;;;;;7.16;82.72;101791.13;5126151;27;20043;-65
2022/10/20 04:49:04;;;;;;;7.90;3.90;;;;;;;7.23;82.06;101784.03;5127006;27;20406;-65
2022/10/20 04:51:31;;;;;;;8.50;4.70;;;;;;;7.42;82.40;101777.53;5127249;27;20125;-65
2022/10/20 04:53:57;;;;;;;11.05;5.13;;;;;;;7.14;83.34;101784.19;5125578;27;20046;-65
2022/10/20 04:56:24;;;;;;;13.80;5.75;;;;;;;7.32;83.03;101782.06;5126676;27;20047;-65
2022/10/20 04:58:52;;;;;;;8.63;5.18;;;;;;;7.21;82.99;101777.97;5126066;27;20047;-65
2022/10/20 05:01:20;;;;;;;11.40;4.75;;;;;;;7.06;83.63;101775.69;5125143;27;20039;-65
2022/10/20 05:03:46;;;;;;;9.77;5.10;;;;;;;7.05;84.41;101782.66;5127096;27;20047;-65
2022/10/20 05:06:16;;;;;;;9.45;4.68;;;;;;;7.24;83.28;101772.72;5125265;27;20039;-65
2022/10/20 05:08:45;;;;;;;14.57;4.75;;;;;;;7.35;82.80;101775.94;5125649;27;20051;-65
2022/10/20 05:11:12;;;;;;;13.80;5.20;;;;;;;7.33;83.13;101762.06;5124900;27;20050;-65
2022/10/20 05:13:39;;;;;;;8.10;4.93;;;;;;;7.34;83.33;101772.47;5126121;27;20466;-65
2022/10/20 05:16:07;;;;;;;10.45;5.10;;;;;;;7.26;83.15;101765.69;5125916;27;20039;-65
2022/10/20 05:18:33;;;;;;;9.43;4.45;;;;;;;7.29;82.86;101768.22;5126005;27;20051;-65
2022/10/20 05:21:04;;;;;;;7.90;5.00;;;;;;;6.82;85.45;101767.47;5126087;27;20042;-65
2022/10/20 05:23:31;;;;;;;11.55;4.80;;;;;;;6.87;85.36;101767.41;5128924;27;20394;-65
2022/10/20 05:26:01;;;;;;;8.77;5.13;;;;;;;6.92;84.22;101769.88;5130068;27;20494;-65
2022/10/20 05:28:28;;;;;;;11.45;6.47;;;;;;;7.43;81.46;101773.16;5133350;27;20046;-65
2022/10/20 05:30:54;;;;;;;12.07;5.85;;;;;;;7.69;79.56;101770.78;5130597;27;20075;-67
2022/10/20 05:33:21;;;;;;;10.05;5.20;;;;;;;7.67;79.06;101763.00;5129100;27;20047;-66
2022/10/20 05:35:47;;;;;;;9.60;4.90;;;;;;;7.27;79.97;101762.19;5128582;27;20763;-67
2022/10/20 05:38:14;;;;;;;10.15;5.13;;;;;;;6.93;80.73;101766.41;5128639;27;20513;-66
2022/10/20 05:40:41;;;;;;;11.15;4.90;;;;;;;6.66;81.65;101768.66;5128600;27;20517;-66
2022/10/20 05:43:08;;;;;;;13.80;5.25;;;;;;;6.72;81.52;101752.91;5129295;27;20096;-66
2022/10/20 05:45:34;;;;;;;10.35;5.55;;;;;;;7.07;79.54;101752.19;5126474;27;20046;-65
2022/10/20 05:48:01;;;;;;;13.13;5.47;;;;;;;7.37;78.14;101748.06;5126785;27;20038;-66
2022/10/20 05:50:27;;;;;;;9.07;4.85;;;;;;;7.35;77.62;101752.47;5129533;27;20046;-66
2022/10/20 05:52:54;;;;;;;18.10;6.05;;;;;;;7.37;78.63;101753.28;5128648;27;20533;-66
2022/10/20 05:55:20;;;;;;;12.43;5.75;;;;;;;7.31;78.30;101749.06;5129512;27;20055;-65
2022/10/20 05:57:50;;;;;;;17.85;6.93;;;;;;;7.09;79.62;101739.13;5119032;27;20391;-65
2022/10/20 06:00:18;;;;;;;12.27;6.28;;;;;;;6.57;83.21;101734.97;5114294;27;20043;-65
2022/10/20 06:02:45;;;;;;;9.65;5.35;;;;;;;6.93;83.33;101748.16;5116753;27;20050;-64
2022/10/20 06:05:11;;;;;;;12.18;6.38;;;;;;;6.98;84.54;101739.34;5128680;27;20391;-66
2022/10/20 06:07:38;;;;;;;13.30;6.90;;;;;;;6.80;85.37;101751.00;5130393;27;20101;-67
2022/10/20 06:10:05;;;;;;;10.88;6.50;;;;;;;6.70;87.41;101748.59;5129719;27;20043;-65
2022/10/20 06:12:31;;;;;;;12.57;6.72;;;;;;;6.69;86.48;101746.88;5127860;27;20055;-65
2022/10/20 06:14:59;;;;;;;14.55;7.07;;;;;;;7.14;85.21;101743.34;5129493;27;20051;-65
2022/10/20 06:17:25;;;;;;;11.90;6.78;;;;;;;7.11;84.76;101748.63;5127949;27;20051;-65
2022/10/20 06:19:52;;;;;;;10.00;6.35;;;;;;;7.18;85.25;101760.63;5129641;27;20043;-65
2022/10/20 06:22:18;;;;;;;12.38;6.85;;;;;;;7.09;85.57;101753.03;5129764;27;20061;-66
2022/10/20 06:24:44;;;;;;;14.93;6.97;;;;;;;6.82;87.14;101753.59;5129071;27;20052;-65
2022/10/20 06:27:11;;;;;;;12.48;7.15;;;;;;;7.15;86.31;101758.09;5130290;27;20491;-65
2022/10/20 06:29:37;;;;;;;13.73;6.75;;;;;;;7.24;85.38;101754.44;5124346;27;20047;-66
2022/10/20 06:32:06;;;;;;;11.68;7.05;;;;;;;6.84;87.04;101752.66;5123680;27;20046;-65
2022/10/20 06:34:32;;;;;;;11.05;6.97;;;;;;;6.97;87.22;101760.22;5127421;27;20039;-65
2022/10/20 06:36:58;;;;;;;17.45;8.38;;;;;;;6.88;88.24;101763.88;5127942;27;20047;-65
2022/10/20 06:39:25;;;;;;;15.50;8.77;;;;;;;6.90;89.21;101763.84;5120154;27;20047;-66
2022/10/20 06:41:53;;;;;;;25.10;9.80;;;;;;;7.08;89.26;101760.88;5129658;27;20050;-66
2022/10/20 06:44:21;;;;;;;75.30;10.70;;;;;;;7.19;88.71;101753.69;5128058;27;20074;-67
2022/10/20 06:46:51;;;;;;;46.13;10.68;;;;;;;7.29;88.67;101755.19;5128923;27;20073;-66
2022/10/20 06:49:19;;;;;;;140.52;16.05;;;;;;;6.94;92.04;101749.88;5129037;27;20047;-66
2022/10/20 06:51:45;;;;;;;43.88;9.52;;;;;;;6.49;94.92;101757.72;5129461;27;20047;-66
2022/10/20 06:54:12;;;;;;;15.05;6.00;;;;;;;6.19;97.44;101755.66;5128071;27;20092;-66
2022/10/20 06:56:39;;;;;;;33.95;12.48;;;;;;;6.27;99.74;101754.63;5126865;27;20088;-65
2022/10/20 06:59:05;;;;;;;43.60;12.70;;;;;;;6.13;100.00;101735.81;5118607;27;20073;-66
2022/10/20 07:01:34;;;;;;;35.92;12.90;;;;;;;6.54;100.00;101729.78;5127014;27;20505;-65
2022/10/20 07:04:02;;;;;;;57.08;13.52;;;;;;;6.79;99.49;101732.78;5127185;27;20486;-65
2022/10/20 07:06:33;;;;;;;23.02;11.38;;;;;;;6.69;99.75;101739.94;5129869;27;20099;-65
2022/10/20 07:09:02;;;;;;;35.55;13.80;;;;;;;6.95;100.00;101747.22;5127233;27;20039;-65
2022/10/20 07:11:30;;;;;;;66.72;13.75;;;;;;;7.33;98.13;101741.19;5127511;27;20043;-65
2022/10/20 07:13:58;;;;;;;39.90;12.90;;;;;;;7.38;97.06;101746.31;5129193;27;20050;-65
2022/10/20 07:16:26;;;;;;;38.00;12.98;;;;;;;7.30;97.74;101743.88;5127866;27;20051;-66
2022/10/20 07:18:53;;;;;;;33.85;13.55;;;;;;;7.43;98.11;101753.13;5127295;27;20043;-65
2022/10/20 07:21:22;;;;;;;33.25;13.90;;;;;;;7.34;98.46;101754.19;5127777;27;20072;-66
2022/10/20 07:23:50;;;;;;;23.33;12.57;;;;;;;7.12;99.48;101744.28;5128506;27;20437;-67
2022/10/20 07:26:19;;;;;;;29.80;13.68;;;;;;;7.31;99.22;101748.19;5128131;27;20076;-66
2022/10/20 07:28:47;;;;;;;25.80;13.05;;;;;;;7.96;95.72;101756.22;5126181;27;20448;-65
2022/10/20 07:31:16;;;;;;;20.35;11.63;;;;;;;7.58;96.94;101742.34;5128241;27;20051;-65
2022/10/20 07:33:42;;;;;;;24.15;12.98;;;;;;;7.67;96.31;101752.56;5128336;27;20055;-65
2022/10/20 07:36:13;;;;;;;18.67;11.07;;;;;;;7.79;96.25;101752.28;5127179;27;20061;-66
2022/10/20 07:38:40;;;;;;;25.40;12.85;;;;;;;8.10;95.09;101747.13;5126137;27;20043;-66
2022/10/20 07:41:08;;;;;;;22.48;12.35;;;;;;;7.95;94.34;101744.91;5126585;27;20054;-65
2022/10/20 07:43:37;;;;;;;18.75;11.07;;;;;;;8.23;93.86;101732.88;5126889;27;20459;-65
2022/10/20 07:46:04;;;;;;;19.10;10.18;;;;;;;7.88;94.44;101734.66;5106247;28;20046;-65
2022/10/20 07:48:31;;;;;;;22.08;11.30;;;;;;;8.03;93.91;101731.66;5111985;27;20513;-66
2022/10/20 07:51:13;;;;;;;18.40;11.20;;;;;;;7.88;94.14;101732.03;5126756;27;20043;-65
2022/10/20 07:53:39;;;;;;;16.35;10.40;;;;;;;8.02;93.94;101727.34;5126933;27;21676;-65
2022/10/20 07:56:07;;;;;;;17.00;10.98;;;;;;;8.40;91.07;101719.38;5128030;27;20486;-65
2022/10/20 07:58:34;;;;;;;20.23;11.43;;;;;;;8.83;91.15;101718.19;5128741;27;20039;-65
2022/10/20 08:01:00;;;;;;;19.90;11.85;;;;;;;9.10;89.53;101715.59;5126181;27;20062;-66
2022/10/20 08:03:27;;;;;;;17.45;10.85;;;;;;;9.21;87.15;101717.91;5126925;27;20043;-65
2022/10/20 08:05:53;;;;;;;15.20;9.82;;;;;;;9.47;86.55;101711.84;5128159;27;20051;-65
2022/10/20 08:08:20;;;;;;;14.82;10.10;;;;;;;8.91;87.52;101706.59;5125483;27;20062;-65
2022/10/20 08:10:46;;;;;;;15.98;10.48;;;;;;;8.74;88.38;101707.09;5126525;27;20513;-65
2022/10/20 08:13:14;;;;;;;14.25;9.85;;;;;;;8.54;90.05;101688.50;5128622;27;20053;-66
2022/10/20 08:15:40;;;;;;;19.42;11.52;;;;;;;8.78;89.05;101689.56;5127110;27;20050;-66
2022/10/20 08:18:07;;;;;;;18.02;9.65;;;;;;;8.74;88.39;101693.16;5125752;27;20408;-66
2022/10/20 08:20:33;;;;;;;14.43;9.27;;;;;;;9.16;86.19;101691.03;5126391;27;20514;-66
2022/10/20 08:23:00;;;;;;;23.30;10.75;;;;;;;9.18;87.90;101690.06;5119949;27;20048;-66
2022/10/20 08:25:26;;;;;;;12.20;9.05;;;;;;;9.64;84.58;101686.88;5119531;27;20054;-66
2022/10/20 08:27:53;;;;;;;12.73;9.50;;;;;;;9.61;84.76;101691.31;5127676;27;20483;-66
2022/10/20 08:30:20;;;;;;;12.50;8.35;;;;;;;9.62;83.73;101688.66;5125119;27;20039;-66
2022/10/20 08:32:50;;;;;;;12.23;9.10;;;;;;;10.10;83.00;101682.69;5126664;27;20043;-67
2022/10/20 08:35:17;;;;;;;11.65;8.70;;;;;;;10.34;81.47;101670.53;5127000;27;20070;-66
2022/10/20 08:37:43;;;;;;;11.35;7.85;;;;;;;10.91;79.23;101675.34;5126489;27;20051;-66
2022/10/20 08:40:16;;;;;;;13.75;8.25;;;;;;;11.28;76.62;101666.91;5126628;27;20490;-66
2022/10/20 08:42:44;;;;;;;10.80;8.40;;;;;;;12.10;75.85;101664.38;5126396;27;20100;-66
2022/10/20 08:45:15;;;;;;;11.98;7.90;;;;;;;11.40;74.77;101669.03;5126429;27;20035;-66
2022/10/20 08:47:44;;;;;;;10.48;8.38;;;;;;;11.53;75.93;101668.47;5105241;28;20055;-66
2022/10/20 08:50:15;;;;;;;9.25;7.45;;;;;;;11.23;77.60;101656.59;5109104;27;20043;-66
2022/10/20 08:52:42;;;;;;;9.18;6.95;;;;;;;12.25;72.64;101658.44;5108957;27;20091;-66
2022/10/20 08:55:18;;;;;;;10.88;7.43;;;;;;;13.01;71.59;101649.66;5127089;27;20051;-66
2022/10/20 08:57:48;;;;;;;9.57;7.03;;;;;;;12.75;68.86;101644.78;5126154;27;20046;-66
2022/10/20 09:00:18;;;;;;;9.75;7.00;;;;;;;13.15;68.94;101637.59;5113642;27;20040;-66
2022/10/20 09:02:47;;;;;;;9.90;6.63;;;;;;;13.30;67.51;101643.91;5109004;27;20055;-67
2022/10/20 09:05:15;;;;;;;9.30;7.03;;;;;;;13.42;67.78;101635.38;5128092;27;20092;-66
2022/10/20 09:07:41;;;;;;;9.23;6.90;;;;;;;14.39;64.50;101635.69;5109357;27;20043;-66
2022/10/20 09:10:23;;;;;;;9.32;6.82;;;;;;;14.53;62.91;101641.06;5114015;27;20043;-66
2022/10/20 09:12:50;;;;;;;9.25;6.57;;;;;;;14.86;62.48;101634.88;5128449;27;20043;-66
2022/10/20 09:15:19;;;;;;;8.45;6.90;;;;;;;15.14;62.88;101631.56;5127449;27;20043;-66
2022/10/20 09:17:51;;;;;;;8.23;6.15;;;;;;;13.97;63.91;101628.19;5126612;27;20402;-66
2022/10/20 09:20:21;;;;;;;7.88;5.78;;;;;;;14.57;62.88;101624.13;5126475;27;20043;-67
2022/10/20 09:22:48;;;;;;;8.38;5.95;;;;;;;14.98;62.20;101628.91;5126225;27;20054;-67
2022/10/20 09:25:17;;;;;;;7.78;6.03;;;;;;;14.56;60.51;101627.69;5126662;27;20087;-67
2022/10/20 09:27:44;;;;;;;9.50;6.20;;;;;;;14.65;59.42;101625.50;5127311;27;20039;-66
2022/10/20 09:30:16;;;;;;;8.65;5.90;;;;;;;13.70;62.39;101613.81;5126193;27;20134;-66
2022/10/20 09:32:43;;;;;;;7.78;5.90;;;;;;;14.17;61.63;101605.19;5125197;27;20042;-67
2022/10/20 09:35:20;;;;;;;8.05;6.00;;;;;;;14.50;61.38;101609.56;5125621;27;20039;-66
2022/10/20 09:37:53;;;;;;;8.85;6.50;;;;;;;14.51;62.59;101603.38;5116020;27;20077;-66
2022/10/20 09:40:21;;;;;;;9.75;7.00;;;;;;;14.14;63.76;101598.31;5123354;27;20122;-66
2022/10/20 09:42:52;;;;;;;8.65;6.03;;;;;;;14.05;62.61;101601.41;5126034;27;20050;-66
2022/10/20 09:45:21;;;;;;;11.20;6.75;;;;;;;14.53;63.78;101596.19;5126724;27;20069;-66
2022/10/20 09:47:52;;;;;;;10.52;6.80;;;;;;;15.04;63.11;101591.59;5126360;27;20043;-66
2022/10/20 09:50:25;;;;;;;9.25;6.15;;;;;;;15.45;59.60;101591.84;5126549;27;20415;-66
2022/10/20 09:52:52;;;;;;;11.30;5.88;;;;;;;14.81;60.58;101600.84;5126172;27;20039;-67
2022/10/20 09:55:28;;;;;;;7.82;6.47;;;;;;;15.44;61.15;101588.38;5126825;27;20500;-66
2022/10/20 09:57:56;;;;;;;10.82;6.47;;;;;;;15.21;59.13;101591.50;5125377;27;20495;-66
2022/10/20 10:00:25;;;;;;;7.85;6.40;;;;;;;15.06;60.11;101593.22;5126697;27;20540;-66
2022/10/20 10:03:08;;;;;;;19.80;6.57;;;;;;;15.68;59.45;101588.75;5127150;27;20054;-66
2022/10/20 10:05:36;;;;;;;8.95;6.28;;;;;;;15.65;58.82;101588.09;5126154;27;20126;-66
2022/10/20 10:08:03;;;;;;;10.38;5.47;;;;;;;15.43;58.09;101573.47;5125631;27;20610;-66
2022/10/20 10:10:31;;;;;;;8.93;6.00;;;;;;;15.00;59.31;101577.72;5128021;27;20062;-66
2022/10/20 10:13:00;;;;;;;8.02;5.60;;;;;;;15.42;57.49;101570.91;5130279;27;20371;-66
2022/10/20 10:15:30;;;;;;;9.00;5.70;;;;;;;15.06;58.80;101571.25;5128675;27;20112;-66
2022/10/20 10:17:57;;;;;;;9.07;5.85;;;;;;;15.02;59.69;101570.56;5130426;27;20042;-66
2022/10/20 10:20:33;;;;;;;6.75;5.70;;;;;;;15.43;59.87;101569.97;5128009;27;20043;-66
2022/10/20 10:23:19;;;;;;;7.70;6.15;;;;;;;15.32;58.19;101561.81;5129300;27;20047;-66
2022/10/20 10:25:46;;;;;;;8.82;5.75;;;;;;;14.70;60.84;101549.56;5129687;27;20058;-66
2022/10/20 10:28:27;;;;;;;6.70;5.15;;;;;;;15.30;58.79;101548.69;5130738;27;20043;-66
2022/10/20 10:31:09;;;;;;;6.13;5.18;;;;;;;15.12;60.72;101549.75;5123051;27;20043;-66
2022/10/20 10:33:36;;;;;;;8.57;5.85;;;;;;;15.35;60.83;101537.84;5128805;27;20054;-66
2022/10/20 10:36:06;;;;;;;7.25;5.30;;;;;;;15.04;60.06;101549.31;5130276;27;20460;-66
2022/10/20 10:38:35;;;;;;;7.50;5.68;;;;;;;15.88;59.58;101548.75;5130270;27;20047;-66
2022/10/20 10:41:14;;;;;;;7.53;5.53;;;;;;;15.89;58.27;101541.66;5128189;27;20406;-66
2022/10/20 10:43:49;;;;;;;7.40;5.10;;;;;;;15.36;59.17;101535.13;5127101;27;20510;-66
2022/10/20 10:46:19;;;;;;;7.05;5.47;;;;;;;14.77;61.50;101537.72;5127515;27;20100;-66
2022/10/20 10:49:21;;;;;;;9.90;5.63;;;;;;;15.48;59.51;101523.81;5127308;27;20051;-66
2022/10/20 10:51:58;;;;;;;8.73;5.20;;;;;;;16.02;61.06;101517.00;5109292;27;20043;-66
2022/10/20 10:54:48;;;;;;;8.52;5.05;;;;;;;15.36;58.12;101519.28;5112362;27;20054;-67
2022/10/20 10:57:22;;;;;;;7.97;5.35;;;;;;;16.07;58.96;101508.78;5126414;27;20062;-66
2022/10/20 10:59:51;;;;;;;6.63;5.57;;;;;;;15.88;58.03;101502.94;5128534;27;20062;-66
2022/10/20 11:02:29;;;;;;;9.02;6.28;;;;;;;16.10;58.11;101500.66;5129889;27;20047;-67
2022/10/20 11:05:26;;;;;;;11.55;7.18;;;;;;;17.18;56.68;101491.84;5129964;27;20046;-67
2022/10/20 11:08:04;;;;;;;15.25;9.70;;;;;;;17.02;55.01;101501.75;5128292;27;20371;-67
2022/10/20 11:10:43;;;;;;;10.15;6.95;;;;;;;16.99;54.79;101494.88;5130309;27;20074;-66
2022/10/20 11:13:22;;;;;;;9.70;5.40;;;;;;;17.04;53.38;101486.59;5117684;27;20042;-66
2022/10/20 11:16:10;;;;;;;13.50;4.90;;;;;;;16.37;56.01;101503.38;5116694;27;20043;-67
2022/10/20 11:18:54;;;;;;;5.57;4.07;;;;;;;15.36;56.66;101492.84;5104811;28;20046;-66
2022/10/20 11:21:28;;;;;;;10.70;4.60;;;;;;;15.36;58.59;101486.69;5108776;27;20043;-66
2022/10/20 11:24:05;;;;;;;7.68;5.03;;;;;;;15.37;59.29;101469.91;5114412;27;20045;-66
2022/10/20 11:26:35;;;;;;;8.55;5.20;;;;;;;15.23;60.03;101454.00;5128921;27;20438;-66
2022/10/20 11:29:05;;;;;;;14.38;4.75;;;;;;;14.55;62.36;101467.66;5128450;27;20043;-66
2022/10/20 11:31:36;;;;;;;7.85;4.63;;;;;;;14.88;61.74;101443.75;5127463;27;20043;-66
2022/10/20 11:34:05;;;;;;;9.88;5.38;;;;;;;15.18;60.85;101440.25;5127269;27;20050;-66
2022/10/20 11:36:37;;;;;;;9.90;5.10;;;;;;;14.82;60.78;101443.28;5125205;27;20496;-67